createdAt,value
2018-03-02T00:00:44.665Z,42.60
2018-03-02T00:03:13.455Z,41.90
2018-03-02T00:05:41.702Z,42.80
2018-03-02T00:08:09.522Z,42.90
2018-03-02T00:10:37.325Z,43.90
2018-03-02T00:13:05.331Z,42.50
2018-03-02T00:15:33.150Z,43.50
2018-03-02T00:18:01.171Z,44.60
2018-03-02T00:20:29.803Z,44.20
2018-03-02T00:22:58.372Z,43.30
2018-03-02T00:25:26.202Z,42.50
2018-03-02T00:27:54.379Z,42.50
2018-03-02T00:32:55.905Z,43.40
2018-03-02T00:35:23.695Z,42.50
2018-03-02T00:37:52.237Z,42.50
2018-03-02T00:40:21.496Z,43.50
2018-03-02T00:42:49.513Z,42.50
2018-03-02T00:47:50.099Z,43.50
2018-03-02T00:50:19.465Z,42.80
2018-03-02T00:52:47.264Z,42.60
2018-03-02T00:57:45.308Z,43.00
2018-03-02T01:00:14.146Z,43.80
2018-03-02T01:02:41.902Z,43.20
2018-03-02T01:15:22.318Z,44.00
2018-03-02T01:17:50.074Z,43.10
2018-03-02T01:20:19.163Z,44.10
2018-03-02T01:22:47.722Z,44.10
2018-03-02T01:25:17.149Z,44.00
2018-03-02T01:27:45.301Z,44.10
2018-03-02T01:30:13.077Z,44.90
2018-03-02T01:32:40.853Z,43.50
2018-03-02T01:35:09.415Z,44.30
2018-03-02T01:37:37.237Z,44.20
2018-03-02T01:40:05.028Z,44.50
2018-03-02T01:42:32.835Z,44.50
2018-03-02T01:45:00.634Z,44.60
2018-03-02T01:47:28.653Z,44.70
2018-03-02T01:49:56.521Z,43.80
2018-03-02T01:52:24.365Z,43.60
2018-03-02T01:54:52.248Z,43.70
2018-03-02T01:57:20.934Z,43.70
2018-03-02T01:59:49.317Z,43.80
2018-03-02T02:02:17.403Z,43.80
2018-03-02T02:04:45.211Z,45.10
2018-03-02T02:07:13.229Z,44.50
2018-03-02T02:09:41.006Z,45.20
2018-03-02T02:12:09.422Z,47.00
2018-03-02T02:22:10.025Z,45.90
2018-03-02T02:27:09.118Z,44.90
2018-03-02T02:32:06.129Z,44.90
2018-03-02T02:34:34.018Z,45.20
2018-03-02T02:39:42.749Z,45.40
2018-03-02T02:42:10.581Z,47.10
2018-03-02T02:44:38.597Z,45.30
2018-03-02T02:47:07.258Z,46.00
2018-03-02T02:49:35.088Z,47.40
2018-03-02T02:54:35.886Z,47.20
2018-03-02T02:57:03.875Z,46.40
2018-03-02T02:59:31.697Z,46.00
2018-03-02T03:04:31.473Z,45.30
2018-03-02T03:06:59.306Z,45.30
2018-03-02T03:11:56.614Z,47.60
2018-03-02T03:14:24.393Z,46.40
2018-03-02T03:16:54.632Z,45.90
2018-03-02T03:24:20.967Z,46.90
2018-03-02T03:29:20.047Z,39.70
2018-03-02T03:31:47.806Z,40.90
2018-03-02T03:34:16.232Z,40.60
2018-03-02T03:36:44.296Z,39.60
2018-03-02T03:44:10.998Z,40.50
2018-03-02T03:46:39.158Z,40.70
2018-03-02T03:49:07.459Z,40.30
2018-03-02T03:54:08.284Z,39.50
2018-03-02T03:56:38.942Z,39.40
2018-03-02T04:12:04.775Z,40.80
2018-03-02T04:17:11.023Z,39.50
2018-03-02T04:19:40.651Z,39.30
2018-03-02T04:22:17.949Z,39.30
2018-03-02T04:24:46.535Z,39.50
2018-03-02T04:32:13.194Z,40.00
2018-03-02T04:34:45.494Z,42.10
2018-03-02T04:39:48.066Z,40.80
2018-03-02T04:44:46.318Z,39.80
2018-03-02T04:47:14.382Z,40.00
2018-03-02T04:54:56.663Z,41.10
2018-03-02T04:57:38.138Z,39.80
2018-03-02T05:02:39.199Z,39.80
2018-03-02T05:07:38.831Z,40.30
2018-03-02T05:10:10.597Z,41.30
2018-03-02T05:20:13.028Z,39.90
2018-03-02T05:22:40.839Z,40.70
2018-03-02T05:25:09.703Z,41.10
2018-03-02T05:27:37.798Z,41.10
2018-03-02T05:32:37.684Z,40.10
2018-03-02T05:35:05.800Z,40.20
2018-03-02T05:37:33.831Z,40.10
2018-03-02T05:40:04.053Z,41.60
2018-03-02T05:45:02.657Z,40.50
2018-03-02T05:47:30.680Z,40.70
2018-03-02T05:49:59.204Z,42.00
2018-03-02T05:54:58.255Z,41.70
2018-03-02T05:57:26.061Z,40.70
2018-03-02T06:02:25.179Z,40.80
2018-03-02T06:04:55.841Z,42.00
2018-03-02T06:09:59.458Z,42.20
2018-03-02T06:12:27.320Z,40.70
2018-03-02T06:14:55.087Z,40.70
2018-03-02T06:17:23.273Z,41.90
2018-03-02T06:19:51.059Z,41.50
2018-03-02T14:17:07.361Z,47.70
2018-03-02T14:19:36.467Z,35.00
2018-03-02T14:22:04.768Z,34.90
2018-03-02T14:24:33.286Z,40.30
2018-03-02T14:27:02.514Z,45.30
2018-03-02T14:29:31.930Z,45.00
2018-03-02T14:32:00.446Z,46.60
2018-03-02T14:34:28.741Z,47.70
2018-03-02T14:36:57.047Z,48.10
2018-03-02T14:39:26.339Z,48.70
2018-03-02T14:41:55.606Z,49.00
2018-03-02T14:44:25.437Z,49.00
2018-03-02T14:46:54.793Z,49.70
2018-03-02T14:49:24.115Z,49.60
2018-03-02T14:51:54.542Z,49.50
2018-03-02T14:54:25.260Z,49.60
2018-03-02T14:56:55.608Z,50.40
2018-03-02T14:59:30.107Z,51.90
2018-03-02T15:02:00.396Z,33.90
2018-03-02T15:04:29.719Z,49.40
2018-03-02T15:06:57.988Z,49.20
2018-03-02T15:09:26.340Z,51.20
2018-03-02T15:11:55.468Z,52.30
2018-03-02T15:14:23.818Z,53.90
2018-03-02T15:16:53.205Z,54.80
2018-03-02T15:19:21.500Z,53.10
2018-03-02T15:21:51.315Z,53.30
2018-03-02T15:24:20.480Z,53.00
2018-03-02T15:26:48.916Z,53.00
2018-03-02T15:29:20.488Z,52.90
2018-03-02T15:32:07.498Z,53.00
2018-03-02T15:34:36.699Z,53.10
2018-03-02T15:37:05.157Z,53.10
2018-03-02T15:39:33.701Z,52.80
2018-03-02T15:42:02.002Z,52.80
2018-03-02T15:44:42.059Z,54.20
2018-03-02T15:47:11.080Z,52.40
2018-03-02T15:49:39.600Z,52.30
2018-03-02T15:52:08.205Z,52.50
2018-03-02T15:54:36.862Z,52.50
2018-03-02T15:57:05.342Z,52.30
2018-03-02T15:59:33.617Z,52.30
2018-03-02T16:02:02.981Z,52.00
2018-03-02T16:04:31.876Z,52.00
2018-03-02T16:07:00.293Z,51.80
2018-03-02T16:09:28.758Z,51.70
2018-03-02T16:11:57.265Z,51.60
2018-03-02T16:14:25.675Z,51.40
2018-03-02T16:16:55.285Z,52.30
2018-03-02T16:19:24.487Z,51.20
2018-03-02T16:21:53.890Z,53.60
2018-03-02T16:24:23.736Z,52.40
2018-03-02T16:26:52.251Z,52.30
2018-03-02T16:29:20.733Z,52.80
2018-03-02T16:31:49.685Z,53.10
2018-03-02T16:34:18.070Z,52.80
2018-03-02T16:36:46.482Z,53.20
2018-03-02T16:39:14.781Z,53.10
2018-03-02T16:41:55.856Z,53.00
2018-03-02T16:44:25.201Z,54.30
2018-03-02T16:46:53.531Z,52.70
2018-03-02T16:49:22.009Z,53.50
2018-03-02T16:51:50.584Z,54.00
2018-03-02T16:54:18.959Z,54.40
2018-03-02T16:56:47.342Z,54.60
2018-03-02T16:59:15.836Z,54.90
2018-03-02T17:01:45.343Z,54.90
2018-03-02T17:04:13.813Z,55.30
2018-03-02T17:06:42.279Z,55.70
2018-03-02T17:09:10.687Z,55.80
2018-03-02T17:11:39.887Z,56.20
2018-03-02T17:14:08.358Z,56.80
2018-03-02T17:16:36.885Z,57.10
2018-03-02T17:19:05.421Z,56.90
2018-03-02T17:21:34.048Z,56.70
2018-03-02T17:24:04.126Z,55.80
2018-03-02T17:26:33.183Z,55.80
2018-03-02T17:29:03.730Z,55.20
2018-03-02T17:31:38.563Z,54.60
2018-03-02T17:34:13.121Z,54.00
2018-03-02T17:36:43.019Z,53.70
2018-03-02T17:39:16.985Z,53.70
2018-03-02T17:41:47.196Z,53.50
2018-03-02T17:44:16.556Z,53.00
2018-03-02T17:46:49.365Z,53.00
2018-03-02T17:49:18.981Z,54.60
2018-03-02T17:51:50.202Z,53.10
2018-03-02T17:54:18.956Z,53.00
2018-03-02T17:56:47.582Z,53.10
2018-03-02T17:59:23.240Z,52.30
2018-03-02T18:01:52.992Z,52.30
2018-03-02T18:04:21.282Z,51.80
2018-03-02T18:07:14.305Z,51.30
2018-03-02T18:09:44.407Z,51.20
2018-03-02T18:12:12.872Z,51.10
2018-03-02T18:14:42.369Z,51.00
2018-03-02T18:17:11.253Z,51.00
2018-03-02T18:19:41.285Z,50.80
2018-03-02T18:22:11.624Z,50.90
2018-03-02T18:24:40.905Z,50.70
2018-03-02T18:27:11.770Z,50.70
2018-03-02T18:29:42.045Z,50.90
2018-03-02T18:32:14.279Z,50.70
2018-03-02T18:34:44.391Z,50.90
2018-03-02T18:37:16.321Z,50.90
2018-03-02T18:39:45.824Z,52.40
2018-03-02T18:42:16.620Z,50.70
2018-03-02T18:44:53.739Z,51.00
2018-03-02T18:47:23.229Z,52.10
2018-03-02T18:49:53.142Z,52.80
2018-03-02T18:52:22.365Z,53.50
2018-03-02T18:54:50.881Z,55.00
2018-03-02T18:57:22.248Z,55.60
2018-03-02T18:59:51.064Z,55.50
2018-03-02T19:02:19.696Z,55.60
2018-03-02T19:04:48.389Z,55.40
2018-03-02T19:07:24.574Z,54.70
2018-03-02T19:09:55.161Z,54.60
2018-03-02T19:12:27.817Z,53.90
2018-03-02T19:14:58.537Z,53.60
2018-03-02T19:17:29.988Z,53.40
2018-03-02T19:19:59.763Z,53.20
2018-03-02T19:22:29.248Z,52.50
2018-03-02T19:24:57.838Z,52.40
2018-03-02T19:27:26.465Z,52.20
2018-03-02T19:29:56.457Z,52.00
2018-03-02T19:32:25.724Z,51.70
2018-03-02T19:34:56.507Z,51.40
2018-03-02T19:37:26.201Z,51.30
2018-03-02T19:39:55.754Z,51.40
2018-03-02T19:42:24.642Z,51.20
2018-03-02T19:45:11.549Z,50.80
2018-03-02T19:47:48.404Z,49.50
2018-03-02T19:50:21.506Z,50.40
2018-03-02T19:52:55.351Z,50.40
2018-03-02T19:55:25.468Z,50.20
2018-03-02T19:57:55.568Z,50.30
2018-03-02T20:00:28.659Z,50.20
2018-03-02T20:02:57.269Z,49.90
2018-03-02T20:05:27.593Z,49.10
2018-03-02T20:07:57.566Z,48.30
2018-03-02T20:10:26.880Z,47.60
2018-03-02T20:12:55.834Z,47.60
2018-03-02T20:15:34.284Z,47.40
2018-03-02T20:18:06.063Z,46.90
2018-03-02T20:20:37.532Z,46.50
2018-03-02T20:23:11.319Z,46.10
2018-03-02T20:25:41.749Z,45.80
2018-03-02T20:28:10.567Z,45.50
2018-03-02T20:30:54.522Z,45.20
2018-03-02T20:33:27.403Z,45.30
2018-03-02T20:35:57.685Z,44.40
2018-03-02T20:38:27.762Z,44.30
2018-03-02T20:40:56.342Z,44.00
2018-03-02T20:43:28.053Z,44.20
2018-03-02T20:45:59.791Z,43.90
2018-03-02T20:48:29.582Z,43.40
2018-03-02T20:51:00.077Z,43.30
2018-03-02T20:53:31.088Z,42.90
2018-03-02T20:56:00.209Z,42.90
2018-03-02T20:58:28.977Z,42.60
2018-03-02T21:00:58.077Z,42.80
2018-03-02T21:03:27.326Z,42.40
2018-03-02T21:05:55.630Z,42.30
2018-03-02T21:08:24.677Z,41.70
2018-03-02T21:10:53.056Z,41.70
2018-03-02T21:13:21.543Z,41.20
2018-03-02T21:15:50.353Z,41.40
2018-03-02T21:18:20.488Z,40.90
2018-03-02T21:20:49.642Z,40.90
2018-03-02T21:23:17.932Z,40.80
2018-03-02T21:25:46.313Z,40.80
2018-03-02T21:28:14.707Z,40.80
2018-03-02T21:30:42.985Z,40.70
2018-03-02T21:33:17.334Z,40.80
2018-03-02T21:35:45.603Z,41.10
2018-03-02T21:38:14.959Z,42.40
2018-03-02T21:40:43.378Z,42.30
2018-03-02T21:43:13.253Z,40.80
2018-03-02T21:45:42.548Z,41.30
2018-03-02T21:48:11.799Z,40.60
2018-03-02T21:50:40.968Z,40.60
2018-03-02T21:53:09.640Z,40.40
2018-03-02T21:55:38.617Z,40.40
2018-03-02T21:58:07.213Z,41.00
2018-03-02T22:00:35.636Z,41.30
2018-03-02T22:03:04.662Z,40.50
2018-03-02T22:05:32.910Z,40.50
2018-03-02T22:08:01.982Z,40.40
2018-03-02T22:10:31.281Z,40.50
2018-03-02T22:12:59.753Z,40.30
2018-03-02T22:15:29.151Z,40.50
2018-03-02T22:17:57.760Z,40.20
2018-03-02T22:20:27.029Z,40.40
2018-03-02T22:22:57.300Z,40.40
2018-03-02T22:25:27.221Z,40.20
2018-03-02T22:27:56.446Z,40.10
2018-03-02T22:30:25.297Z,40.10
2018-03-02T22:32:56.564Z,40.20
2018-03-02T22:35:24.992Z,40.10
2018-03-02T22:37:53.374Z,39.80
2018-03-02T22:40:22.506Z,39.60
2018-03-02T22:42:51.614Z,39.80
2018-03-02T22:45:20.867Z,39.80
2018-03-02T22:47:49.290Z,39.70
2018-03-02T22:50:20.549Z,40.70
2018-03-02T22:52:48.812Z,40.50
2018-03-02T22:55:20.131Z,40.10
2018-03-02T22:58:15.940Z,40.00
2018-03-02T23:00:44.931Z,39.60
2018-03-02T23:03:13.522Z,39.70
2018-03-02T23:05:42.010Z,40.10
2018-03-02T23:08:12.730Z,40.10
2018-03-02T23:10:44.676Z,40.00
2018-03-02T23:13:15.449Z,40.20
2018-03-02T23:15:45.325Z,40.10
2018-03-02T23:18:14.457Z,40.00
2018-03-02T23:20:42.776Z,40.20
2018-03-02T23:23:14.947Z,40.10
2018-03-02T23:25:48.618Z,40.70
2018-03-02T23:30:55.858Z,41.50
2018-03-02T23:33:36.826Z,41.90
2018-03-02T23:36:05.119Z,42.00
2018-03-02T23:38:33.636Z,42.40
2018-03-02T23:41:04.266Z,42.60
2018-03-02T23:43:32.701Z,42.40
2018-03-02T23:46:01.804Z,42.70
2018-03-02T23:48:30.393Z,43.30
2018-03-02T23:51:11.806Z,43.50
2018-03-02T23:53:40.204Z,43.60
2018-03-02T23:56:09.390Z,44.30
2018-03-02T23:58:38.691Z,44.90
